Impacts TAF Board INFO
FOR SITUATIONAL AWARENESS. NOT TO BE USED FOR FLIGHT PLANNING PURPOSES.
IDs:

KDEN - Denver Intl, CO, US

Issued at 1737 UTC 23 Feb 2017
Updated at 1825 UTC 23 Feb 2017
Potential Impact None Slight Moderate High
Time1816Z 23/19Z 23/20Z 23/21Z 23/22Z 23/23Z 24/00Z 24/01Z 24/02Z 24/03Z 24/04Z 24/05Z 24/06Z 24/07Z
Type OBS PRVL
  [TEMP]  
PRVL
  [TEMP]  
PRVL
  [TEMP]  
PRVL PRVL PRVL PRVL
  [TEMP]  
PRVL
  [TEMP]  
PRVL
  [TEMP]  
PRVL
  [TEMP]  
PRVL PRVL PRVL
VIS 0.5 2
  [1]  
2
  [1]  
2
  [1]  
2 2 2 3
  [1]  
3
  [1]  
3
  [1]  
3
  [1]  
3 4 4
CIG 7 8
  [4]  
8
  [4]  
8
  [4]  
10 10 10 12
  [5]  
12
  [5]  
12
  [5]  
12
  [5]  
12 5 5
Cover OVX OVC
  [OVC]  
OVC
  [OVC]  
OVC
  [OVC]  
OVC OVC OVC OVC
  [BKN]  
OVC
  [BKN]  
OVC
  [BKN]  
OVC
  [BKN]  
OVC BKN BKN
FltCat LIFR IFR
  [LIFR]  
IFR
  [LIFR]  
IFR
  [LIFR]  
IFR IFR IFR MVFR
  [IFR]  
MVFR
  [IFR]  
MVFR
  [IFR]  
MVFR
  [IFR]  
MVFR IFR IFR
WX SN FZFG -SN BR
  [-SN BR]  
-SN BR
  [-SN BR]  
-SN BR
  [-SN BR]  
-SN BR -SN BR -SN BR -SN BR
  [-SN BR]  
-SN BR
  [-SN BR]  
-SN BR
  [-SN BR]  
-SN BR
  [-SN BR]  
-SN BR -SN BR -SN BR
WDir 60 60
[60]
60
[60]
60
[60]
60 60 60 10
[10]
10
[10]
10
[10]
10
[10]
10 360 360
WSpd 12 15
  [15]  
15
  [15]  
15
  [15]  
14 14 14 15
  [15]  
15
  [15]  
15
  [15]  
15
  [15]  
15 10 10
WGst -- --
  [--]  
--
  [--]  
--
  [--]  
-- -- -- --
  [--]  
--
  [--]  
--
  [--]  
--
  [--]  
-- -- --

Raw TAF
KDEN 231737Z 2318/2424 07007KT 1SM -SN BR SCT004 BKN006 OVC010
  TEMPO 2318/2319 1/2SM SN FZFG OVC004
  FM231900 06015KT 2SM -SN BR BKN008 OVC020
  TEMPO 2319/2322 1SM -SN BR OVC004
  FM232200 06014KT 2SM -SN BR SCT004 BKN010 OVC020
  FM240100 01015KT 3SM -SN BR SCT008 BKN012 OVC020
  TEMPO 2401/2405 1SM -SN BR BKN005
  FM240600 36010KT 4SM -SN BR BKN005
  FM241200 34009KT P6SM VCSH SCT005 BKN012
  FM242200 06010KT P6SM SCT010 BKN040


Raw METAR
KDEN 231816Z 06012KT 1/2SM R35L/3000V4000FT SN FZFG VV007 M02/M03 A2953 RMK AO2 P0002 T10171033
KDEN 231804Z 07011KT 1/4SM R35L/3500V4000FT SN FZFG FEW004 OVC009 M02/M03 A2953 RMK AO2 P0000 T10171033
KDEN 231753Z 09011KT 3/4SM R35L/3500V4500FT -SN BR SCT004 OVC010 M02/M03 A2953 RMK AO2 SLP006 P0007 60008 I6000 T10171028 11017 21028 56004
KDEN 231707Z 07005KT 3/4SM R35L/3000VP6000FT -SN BR SCT006 BKN008 OVC012 M02/M03 A2953 RMK AO2 P0002 T10171033
KDEN 231653Z 07007KT 1SM R35L/5500VP6000FT -SN BR SCT006 BKN008 OVC012 M02/M04 A2953 RMK AO2 SNB36 SLP006 P0001 T10171039
KDEN 231644Z 13008KT 1 3/4SM -SN BR SCT006 BKN008 OVC012 M02/M04 A2953 RMK AO2 SNB36 P0001 T10171039
KDEN 231553Z 13013KT 6SM BR SCT006 BKN008 OVC012 M02/M04 A2952 RMK AO2 SLP003 SHSN VC N-NE I1000 T10221044
KDEN 231543Z 12011KT 7SM SCT006 BKN008 OVC012 M02/M04 A2953 RMK AO2 SHSN VC N-NE T10221044

METAR Board
Radar Display
Forecast Discussion

FOR SITUATIONAL AWARENESS. NOT TO BE USED FOR FLIGHT PLANNING PURPOSES.

Page loaded:  18:25 UTC  |   10:25 AM Pacific  |   11:25 AM Mountain  |   12:25 PM Central  |   01:25 PM Eastern

 

ADVISORIES

FORECASTS

FORECASTS

OBSERVATIONS

USER TOOLS

ABOUT US